Time;durP1;ratioP1;P1;durP2;ratioP2;P2;SDS_P1;SDS_P2;PMS_P1;PMS_P2;Temp;Humidity;BMP_temperature;BMP_pressure;BME280_temperature;BME280_humidity;BME280_pressure;Samples;Min_cycle;Max_cycle;Signal;HPM_P1;HPM_P2
2022/02/10 00:14:16;;;;;;;;;40.00;37.75;;;;;-147.17;100.00;50556.63;4990129;28;51114;-63
2022/02/10 00:35:42;;;;;;;;;43.50;37.50;;;;;-147.17;100.00;50544.81;4993801;28;51016;-62
2022/02/10 00:37:59;;;;;;;;;39.00;35.75;;;;;-147.17;100.00;50546.78;4995638;28;51302;-62
2022/02/10 00:40:35;;;;;;;;;42.50;37.00;;;;;-147.17;100.00;50552.69;4995130;28;51186;-62
2022/02/10 00:43:05;;;;;;;;;40.50;36.25;;;;;-147.17;100.00;50556.63;4995473;28;51267;-62
2022/02/10 00:45:32;;;;;;;;;35.75;34.75;;;;;-147.17;100.00;50525.13;4994534;28;51854;-63
2022/02/10 00:48:06;;;;;;;;;43.00;37.25;;;;;-147.17;100.00;50560.56;4995894;28;51170;-62
2022/02/10 00:50:34;;;;;;;;;40.50;35.00;;;;;-147.17;100.00;50554.66;4995849;28;51293;-62
2022/02/10 00:55:30;;;;;;;;;42.25;37.75;;;;;-147.17;100.00;50564.50;4991064;28;51728;-62
2022/02/10 00:57:56;;;;;;;;;38.50;35.00;;;;;-147.17;100.00;50540.88;5004517;28;50885;-63
2022/02/10 01:11:10;;;;;;;;;34.25;32.50;;;;;-147.17;100.00;50552.69;4991014;28;51232;-62
2022/02/10 01:29:41;;;;;;;;;42.25;36.00;;;;;-147.17;100.00;50495.59;4972369;28;51241;-62
2022/02/10 01:32:07;;;;;;;;;40.75;36.75;;;;;-147.17;100.00;50552.69;4975432;28;50975;-62
2022/02/10 01:34:36;;;;;;;;;38.75;35.00;;;;;-147.17;100.00;50531.03;4975832;28;51173;-61
2022/02/10 01:37:02;;;;;;;;;35.75;33.75;;;;;-147.17;100.00;50534.97;4975130;28;52274;-62
2022/02/10 01:39:32;;;;;;;;;40.75;32.25;;;;;-147.17;100.00;50536.94;4973948;28;50996;-61
2022/02/10 02:03:15;;;;;;;;;39.25;36.00;;;;;-147.17;100.00;50495.59;4975083;28;51489;-62
2022/02/10 02:03:45;;;;;;;;;39.25;35.75;;;;;-147.17;100.00;50493.63;4975171;28;51083;-62
2022/02/10 02:06:26;;;;;;;;;44.00;38.00;;;;;-147.17;100.00;50507.41;4972467;28;51488;-62
2022/02/10 02:08:52;;;;;;;;;40.50;35.25;;;;;-147.17;100.00;50491.66;4962656;28;51108;-62
2022/02/10 02:11:17;;;;;;;;;42.25;37.25;;;;;-147.17;100.00;50501.50;4975092;28;50994;-62
2022/02/10 02:13:43;;;;;;;;;52.50;40.75;;;;;-147.17;100.00;50466.06;4974740;28;50880;-62
2022/02/10 02:16:08;;;;;;;;;56.50;44.25;;;;;-147.17;100.00;50509.38;4973902;28;51203;-62
2022/02/10 02:18:33;;;;;;;;;74.50;57.75;;;;;-147.17;100.00;50470.00;4974433;28;52171;-63
2022/02/10 02:21:00;;;;;;;;;61.75;51.50;;;;;-147.17;100.00;50456.22;4988891;28;51278;-62
2022/02/10 02:23:28;;;;;;;;;47.00;39.00;;;;;-147.17;100.00;50473.94;4977309;28;51043;-63
2022/02/10 02:26:19;;;;;;;;;57.75;47.25;;;;;-147.17;100.00;50452.28;4994754;28;50941;-62
2022/02/10 02:28:49;;;;;;;;;54.50;45.25;;;;;-147.17;100.00;50460.16;4980959;28;51294;-62
2022/02/10 02:31:21;;;;;;;;;38.25;35.50;;;;;-147.17;100.00;50448.34;4993279;28;51169;-62
2022/02/10 03:04:10;;;;;;;;;33.50;32.50;;;;;-147.17;100.00;50442.44;4994578;28;51115;-62
2022/02/10 03:06:58;;;;;;;;;28.00;21.50;;;;;-147.17;100.00;50450.31;4993567;28;50913;-62
2022/02/10 03:09:27;;;;;;;;;31.25;27.25;;;;;-147.17;100.00;50454.25;4993375;28;51056;-62
2022/02/10 03:11:54;;;;;;;;;33.00;30.00;;;;;-147.17;100.00;50473.94;4993354;28;52718;-61
2022/02/10 03:14:25;;;;;;;;;26.00;25.50;;;;;-147.17;100.00;50489.69;4993173;28;50980;-62
2022/02/10 04:03:27;;;;;;;;;29.50;27.75;;;;;-147.17;100.00;50464.09;4993308;28;50983;-62
2022/02/10 04:06:13;;;;;;;;;24.25;23.25;;;;;-147.17;100.00;50466.06;4992212;28;51043;-62
2022/02/10 04:09:44;;;;;;;;;30.50;29.50;;;;;-147.17;100.00;50462.13;4990066;28;51224;-62
2022/02/10 04:16:28;;;;;;;;;32.50;26.25;;;;;-147.17;100.00;50434.56;4995897;28;51270;-61
2022/02/10 04:26:55;;;;;;;;;37.25;33.00;;;;;-147.17;100.00;50473.94;4995659;28;50993;-61
2022/02/10 04:58:56;;;;;;;;;35.50;33.75;;;;;-147.17;100.00;50458.19;4993501;28;51221;-61
2022/02/10 05:01:46;;;;;;;;;32.75;29.75;;;;;-147.17;100.00;50454.25;4995896;28;51193;-62
2022/02/10 05:22:37;;;;;;;;;26.75;25.50;;;;;-147.17;100.00;50434.56;4995339;28;51018;-63
2022/02/10 05:35:37;;;;;;;;;33.50;29.25;;;;;-147.17;100.00;50448.34;4995578;28;50940;-62
2022/02/10 05:46:02;;;;;;;;;30.25;28.25;;;;;-147.17;100.00;50438.50;4996226;28;51093;-62
2022/02/10 05:56:18;;;;;;;;;28.00;25.00;;;;;-147.17;100.00;50454.25;4994343;28;51147;-62
2022/02/10 06:02:17;;;;;;;;;31.50;29.50;;;;;-147.17;100.00;50416.84;4997403;28;51394;-62
2022/02/10 06:48:40;;;;;;;;;31.25;26.25;;;;;-147.17;100.00;50462.13;4987175;28;51065;-62
2022/02/10 06:53:23;;;;;;;;;24.50;21.00;;;;;-147.17;100.00;50448.34;4976110;28;51024;-62
2022/02/10 07:47:05;;;;;;;;;37.00;32.50;;;;;-147.17;100.00;50452.28;4993120;28;51105;-63
2022/02/10 07:55:10;;;;;;;;;42.75;35.75;;;;;-147.17;100.00;50473.94;4992772;28;51063;-64
2022/02/10 09:05:23;;;;;;;;;32.00;31.75;;;;;-147.17;100.00;50511.34;4994878;28;50987;-63
2022/02/10 09:11:10;;;;;;;;;30.00;27.00;;;;;-147.17;100.00;50454.25;4995285;28;51092;-62
2022/02/10 09:21:40;;;;;;;;;31.50;29.00;;;;;-147.17;100.00;50473.94;4965664;28;51076;-62
2022/02/10 09:25:26;;;;;;;;;39.00;34.25;;;;;-147.17;100.00;50489.69;4994920;28;51331;-63
2022/02/10 10:02:16;;;;;;;;;34.00;31.00;;;;;-147.17;100.00;50505.44;4994190;28;51022;-62
2022/02/10 10:05:01;;;;;;;;;37.25;30.50;;;;;-147.17;100.00;50536.94;4994478;28;51008;-63
2022/02/10 10:07:51;;;;;;;;;27.25;26.50;;;;;-147.17;100.00;50505.44;4993802;28;50869;-64
2022/02/10 10:15:25;;;;;;;;;29.25;28.25;;;;;-147.17;100.00;50517.25;4993672;28;51117;-63
2022/02/10 10:18:21;;;;;;;;;29.00;26.75;;;;;-147.17;100.00;50511.34;4977819;28;51188;-62
2022/02/10 10:50:35;;;;;;;;;25.50;23.50;;;;;-147.17;100.00;50521.19;4993634;28;51120;-63
2022/02/10 10:58:16;;;;;;;;;31.50;28.25;;;;;-147.17;100.00;50564.50;4987882;28;51100;-63
2022/02/10 11:04:26;;;;;;;;;30.25;28.50;;;;;-147.17;100.00;50568.44;4982658;28;51642;-62
2022/02/10 11:36:59;;;;;;;;;24.50;23.25;;;;;-147.17;100.00;50741.69;4991830;28;51079;-63
2022/02/10 13:27:20;;;;;;;;;12.75;11.75;;;;;-147.17;100.00;50527.09;4991409;28;50956;-62
2022/02/10 14:15:03;;;;;;;;;13.25;13.00;;;;;-147.17;100.00;50568.44;4992944;28;50966;-63
2022/02/10 14:17:34;;;;;;;;;13.50;11.50;;;;;-147.17;100.00;50548.75;4993095;28;51108;-63
2022/02/10 14:20:11;;;;;;;;;16.50;15.25;;;;;-147.17;100.00;50566.47;4941123;28;51293;-64
2022/02/10 14:22:40;;;;;;;;;13.67;13.00;;;;;-147.17;100.00;50578.28;4992534;28;51635;-63
2022/02/10 14:27:50;;;;;;;;;13.75;13.50;;;;;-147.17;100.00;50556.63;4978653;28;51227;-62
2022/02/10 14:30:16;;;;;;;;;19.00;17.00;;;;;-147.17;100.00;50580.25;4975275;28;51230;-62
2022/02/10 14:32:44;;;;;;;;;13.00;13.00;;;;;-147.17;100.00;50588.13;4989979;28;52156;-63
2022/02/10 14:35:18;;;;;;;;;12.75;12.00;;;;;-147.17;100.00;50562.53;4975481;28;51054;-63
2022/02/10 14:38:12;;;;;;;;;19.00;16.00;;;;;-147.17;100.00;50603.88;4993153;28;51126;-64
2022/02/10 15:21:29;;;;;;;;;14.25;14.00;;;;;-147.17;100.00;50572.38;4995319;28;51107;-63
2022/02/10 16:17:13;;;;;;;;;11.00;10.00;;;;;-147.17;98.12;50680.66;4991932;28;51004;-60
2022/02/10 16:19:41;;;;;;;;;10.00;9.00;;;;;-147.17;98.04;50678.69;4991448;28;51790;-61
2022/02/10 16:24:45;;;;;;;;;13.33;11.33;;;;;-147.17;98.34;50670.81;4992009;28;50889;-61
2022/02/10 16:27:22;;;;;;;;;11.67;11.00;;;;;-147.17;98.89;50639.31;4993254;28;51093;-61
2022/02/10 16:29:49;;;;;;;;;11.00;10.33;;;;;-147.17;98.64;50668.84;4991535;28;51164;-61
2022/02/10 16:32:14;;;;;;;;;11.25;11.25;;;;;-147.17;98.94;50710.19;4973615;28;51026;-61
2022/02/10 16:34:43;;;;;;;;;12.00;11.50;;;;;-147.17;99.05;50645.22;4991324;28;51111;-60
2022/02/10 16:37:10;;;;;;;;;12.25;10.50;;;;;-147.17;99.49;50651.13;4991877;28;51006;-60
2022/02/10 16:39:37;;;;;;;;;11.00;9.25;;;;;-147.17;99.87;50659.00;4991028;28;50937;-62
2022/02/10 16:42:04;;;;;;;;;12.75;12.75;;;;;-147.17;99.94;50659.00;4991478;28;50897;-62
2022/02/10 16:44:30;;;;;;;;;13.50;12.00;;;;;-147.17;100.00;50666.88;4973729;28;51355;-61
2022/02/10 16:46:55;;;;;;;;;11.00;10.50;;;;;-147.17;100.00;50645.22;4991848;28;51207;-61
2022/02/10 16:49:22;;;;;;;;;15.00;15.00;;;;;-147.17;100.00;50647.19;4991118;28;50996;-61
2022/02/10 16:51:48;;;;;;;;;18.00;16.00;;;;;-147.17;100.00;50635.38;4991003;28;50963;-62
2022/02/10 16:54:37;;;;;;;;;17.00;14.75;;;;;-147.17;100.00;50649.16;4991226;28;51234;-61
2022/02/10 16:57:07;;;;;;;;;16.75;14.75;;;;;-147.17;100.00;50670.81;4991481;28;51484;-60
2022/02/10 17:00:06;;;;;;;;;17.00;17.00;;;;;-147.17;100.00;50664.91;4974600;28;51108;-61
2022/02/10 17:21:28;;;;;;;;;18.25;14.75;;;;;-147.17;100.00;50601.91;4993798;28;51103;-61
2022/02/10 17:35:04;;;;;;;;;21.25;20.25;;;;;-147.17;100.00;50525.13;4976794;28;51115;-61
2022/02/10 17:53:29;;;;;;;;;10.00;8.00;;;;;-147.17;100.00;50493.63;4993908;28;50990;-61
2022/02/10 17:55:55;;;;;;;;;10.00;9.00;;;;;-147.17;100.00;50475.91;4994516;28;51121;-61
2022/02/10 17:58:22;;;;;;;;;6.33;6.33;;;;;-147.17;100.00;50517.25;4994343;28;51240;-61
2022/02/10 18:00:52;;;;;;;;;6.33;6.00;;;;;-147.17;100.00;50491.66;4994975;28;50920;-60
2022/02/10 18:03:18;;;;;;;;;7.50;7.50;;;;;-147.17;100.00;50507.41;4993408;28;51837;-61
2022/02/10 18:06:11;;;;;;;;;10.00;9.00;;;;;-147.17;100.00;50434.56;4993571;28;51159;-61
2022/02/10 18:08:53;;;;;;;;;9.00;7.75;;;;;-147.17;100.00;50485.75;4994280;28;50963;-62
2022/02/10 18:16:31;;;;;;;;;9.75;7.75;;;;;-147.17;100.00;50485.75;4993718;28;50794;-62
2022/02/10 18:24:59;;;;;;;;;8.25;7.75;;;;;-147.17;100.00;50489.69;4993083;28;50881;-62
2022/02/10 18:27:26;;;;;;;;;9.25;5.50;;;;;-147.17;100.00;50470.00;4985710;28;51249;-61
2022/02/10 19:07:52;;;;;;;;;4.00;4.00;;;;;-147.17;100.00;50470.00;4993031;28;51582;-63
2022/02/10 19:10:22;;;;;;;;;3.00;3.00;;;;;-147.17;100.00;50493.63;4992155;28;51465;-61
2022/02/10 19:12:53;;;;;;;;;3.00;2.75;;;;;-147.17;100.00;50473.94;4996598;28;51033;-61
2022/02/10 19:15:22;;;;;;;;;3.00;3.00;;;;;-147.17;100.00;50470.00;4995583;28;50865;-61
2022/02/10 19:17:48;;;;;;;;;3.50;3.00;;;;;-147.17;100.00;50491.66;4994197;28;51786;-62
2022/02/10 19:20:15;;;;;;;;;3.00;3.00;;;;;-147.17;100.00;50458.19;4992691;28;51111;-61
2022/02/10 19:22:42;;;;;;;;;2.00;2.00;;;;;-147.17;100.00;50452.28;4983700;28;51124;-62
2022/02/10 19:25:10;;;;;;;;;4.00;4.00;;;;;-147.17;100.00;50471.97;4991896;28;51098;-61
2022/02/10 19:27:37;;;;;;;;;5.75;5.75;;;;;-147.17;100.00;50448.34;4991001;28;51699;-60
2022/02/10 19:30:07;;;;;;;;;6.25;5.75;;;;;-147.17;100.00;50481.81;4991464;28;51047;-63
2022/02/10 19:32:33;;;;;;;;;5.00;4.00;;;;;-147.17;100.00;50454.25;5000178;28;51189;-60
2022/02/10 19:35:00;;;;;;;;;4.00;4.00;;;;;-147.17;100.00;50454.25;4992237;28;51026;-60
2022/02/10 19:37:27;;;;;;;;;8.00;7.50;;;;;-147.17;100.00;50466.06;4991669;28;52934;-61
2022/02/10 19:39:58;;;;;;;;;10.00;9.00;;;;;-147.17;100.00;50438.50;4991948;28;50984;-61
2022/02/10 19:42:26;;;;;;;;;9.50;8.00;;;;;-147.17;100.00;50470.00;4992721;28;51340;-61
2022/02/10 19:44:57;;;;;;;;;9.75;8.50;;;;;-147.17;100.00;50332.19;4991523;28;51248;-61
2022/02/10 19:47:23;;;;;;;;;7.25;6.75;;;;;-147.17;100.00;50324.31;4989272;28;51848;-60
2022/02/10 19:49:48;;;;;;;;;6.25;4.00;;;;;-147.17;100.00;50312.53;4990498;28;51027;-62
2022/02/10 19:52:15;;;;;;;;;4.00;4.00;;;;;-147.17;100.00;50379.44;4972747;28;51105;-62
2022/02/10 19:54:46;;;;;;;;;6.25;6.00;;;;;-147.17;100.00;50371.56;4990697;28;51219;-61
2022/02/10 19:57:12;;;;;;;;;5.75;3.75;;;;;-147.17;100.00;50407.00;4991770;28;51714;-61
2022/02/10 19:59:37;;;;;;;;;6.50;6.00;;;;;-147.17;100.00;50424.72;4985253;28;51004;-61
2022/02/10 20:02:05;;;;;;;;;6.75;6.00;;;;;-147.17;100.00;50405.03;4990717;28;51390;-62
2022/02/10 20:04:31;;;;;;;;;6.25;5.50;;;;;-147.17;100.00;50420.78;4990683;28;51423;-62
2022/02/10 20:06:56;;;;;;;;;6.25;6.00;;;;;-147.17;100.00;50408.97;4990417;28;53172;-61
2022/02/10 20:09:21;;;;;;;;;7.00;7.00;;;;;-147.17;100.00;50399.13;4991634;28;50956;-61
2022/02/10 20:11:51;;;;;;;;;8.75;7.75;;;;;-147.17;100.00;50414.88;4973242;28;51540;-62
2022/02/10 20:14:18;;;;;;;;;6.75;6.25;;;;;-147.17;100.00;50408.97;4989299;28;51760;-61
2022/02/10 20:16:43;;;;;;;;;12.50;10.00;;;;;-147.17;100.00;50407.00;4996304;28;51881;-61
2022/02/10 20:19:09;;;;;;;;;8.00;7.75;;;;;-147.17;100.00;50422.75;4990678;28;50917;-61
2022/02/10 20:21:36;;;;;;;;;5.25;5.00;;;;;-147.17;100.00;50422.75;4993496;28;50991;-61
2022/02/10 20:24:02;;;;;;;;;7.00;6.00;;;;;-147.17;100.00;50430.63;4995790;28;51839;-61
2022/02/10 20:26:27;;;;;;;;;4.00;3.50;;;;;-147.17;100.00;50438.50;4992045;28;51875;-61
2022/02/10 20:28:52;;;;;;;;;7.00;7.00;;;;;-147.17;100.00;50418.81;4993100;28;51033;-61
2022/02/10 20:31:18;;;;;;;;;11.75;9.50;;;;;-147.17;100.00;50424.72;4992712;28;51480;-60
2022/02/10 20:33:45;;;;;;;;;6.75;6.75;;;;;-147.17;100.00;50426.69;4992407;28;51345;-61
2022/02/10 20:36:10;;;;;;;;;7.00;6.00;;;;;-147.17;100.00;50446.38;4991716;28;51022;-60
2022/02/10 20:38:42;;;;;;;;;7.00;6.50;;;;;-147.17;100.00;50403.06;4991938;28;51070;-60
2022/02/10 20:41:12;;;;;;;;;9.00;8.25;;;;;-147.17;100.00;50418.81;4965182;28;51289;-62
2022/02/10 20:43:38;;;;;;;;;6.50;6.50;;;;;-147.17;100.00;50416.84;4972185;28;51075;-61
2022/02/10 20:46:07;;;;;;;;;5.00;4.50;;;;;-147.17;100.00;50422.75;4991912;28;52795;-62
2022/02/10 20:48:35;;;;;;;;;6.00;6.00;;;;;-147.17;100.00;50422.75;4991921;28;51190;-60
2022/02/10 20:51:03;;;;;;;;;4.50;4.00;;;;;-147.17;100.00;50436.53;4992511;28;51126;-61
2022/02/10 20:53:30;;;;;;;;;8.00;7.00;;;;;-147.17;100.00;50434.56;4976399;28;51935;-61
2022/02/10 20:55:58;;;;;;;;;7.00;7.00;;;;;-147.17;100.00;50438.50;4993440;28;52050;-61
2022/02/10 20:58:27;;;;;;;;;6.50;6.50;;;;;-147.17;100.00;50420.78;4977533;28;51060;-61
2022/02/10 21:00:55;;;;;;;;;9.75;7.50;;;;;-147.17;100.00;50412.91;4994091;28;51106;-60
2022/02/10 21:03:23;;;;;;;;;8.25;7.75;;;;;-147.17;100.00;50452.28;4994768;28;51320;-60
2022/02/10 21:05:50;;;;;;;;;8.00;8.00;;;;;-147.17;100.00;50391.25;4991691;28;51164;-60
2022/02/10 21:08:43;;;;;;;;;6.00;6.00;;;;;-147.17;100.00;50442.44;4958979;28;51133;-60
2022/02/10 21:11:09;;;;;;;;;6.00;6.00;;;;;-147.17;100.00;50420.78;4991589;28;51009;-62
2022/02/10 21:13:35;;;;;;;;;11.25;11.00;;;;;-147.17;100.00;50450.31;4993942;28;51313;-61
2022/02/10 21:16:01;;;;;;;;;7.00;7.00;;;;;-147.17;100.00;50430.63;4975448;28;51914;-61
2022/02/10 21:18:27;;;;;;;;;8.00;8.00;;;;;-147.17;100.00;50420.78;4973218;28;51227;-61
2022/02/10 21:21:04;;;;;;;;;8.50;7.50;;;;;-147.17;100.00;50446.38;4990211;28;51133;-60
2022/02/10 21:23:34;;;;;;;;;5.50;5.50;;;;;-147.17;100.00;50444.41;4992672;28;50974;-60
2022/02/10 21:26:01;;;;;;;;;7.00;6.25;;;;;-147.17;100.00;50403.06;4994718;28;51862;-60
2022/02/10 21:28:33;;;;;;;;;7.00;7.00;;;;;-147.17;100.00;50436.53;4996104;28;51245;-62
2022/02/10 21:31:02;;;;;;;;;7.00;7.00;;;;;-147.17;100.00;50428.66;4993484;28;51156;-62
2022/02/10 21:33:45;;;;;;;;;5.00;5.00;;;;;-147.17;100.00;50438.50;4998544;28;51152;-61
2022/02/10 21:39:23;;;;;;;;;6.75;6.50;;;;;-147.17;100.00;50454.25;4987477;28;51152;-61
2022/02/10 21:45:29;;;;;;;;;5.50;5.50;;;;;-147.17;100.00;50440.47;4995228;28;51403;-61
2022/02/10 22:21:38;;;;;;;;;7.00;6.00;;;;;-147.17;100.00;50424.72;4974030;28;51207;-61
2022/02/10 22:24:09;;;;;;;;;7.00;6.00;;;;;-147.17;100.00;50466.06;4974458;28;50947;-61
2022/02/10 22:26:37;;;;;;;;;8.75;7.75;;;;;-147.17;100.00;50454.25;4962936;28;51043;-62
2022/02/10 22:29:11;;;;;;;;;8.00;8.00;;;;;-147.17;100.00;50426.69;4993514;28;51733;-61
2022/02/10 22:34:40;;;;;;;;;7.00;7.00;;;;;-147.17;100.00;50462.13;4933142;28;51282;-61
2022/02/10 22:37:10;;;;;;;;;8.25;8.00;;;;;-147.17;100.00;50438.50;4981356;28;51104;-61
2022/02/10 22:39:42;;;;;;;;;11.00;11.00;;;;;-147.17;100.00;50416.84;4992324;28;51905;-61
2022/02/10 22:42:08;;;;;;;;;7.00;7.00;;;;;-147.17;100.00;50438.50;4993151;28;50941;-61
2022/02/10 22:44:35;;;;;;;;;6.25;6.00;;;;;-147.17;100.00;50434.56;4990865;28;51246;-62
2022/02/10 22:47:04;;;;;;;;;6.00;6.00;;;;;-147.17;100.00;50440.47;4992737;28;51117;-61
2022/02/10 22:49:30;;;;;;;;;8.00;7.50;;;;;-147.17;100.00;50432.59;4992448;28;52009;-60
2022/02/10 22:51:56;;;;;;;;;7.00;6.00;;;;;-147.17;100.00;50450.31;4993339;28;51402;-60
2022/02/10 22:54:21;;;;;;;;;8.75;7.50;;;;;-147.17;100.00;50434.56;4993107;28;50972;-62
2022/02/10 22:56:47;;;;;;;;;7.00;7.00;;;;;-147.17;100.00;50426.69;4993640;28;51159;-61
2022/02/10 22:59:14;;;;;;;;;3.75;3.75;;;;;-147.17;100.00;50424.72;4992261;28;51980;-60
2022/02/10 23:01:40;;;;;;;;;6.75;6.75;;;;;-147.17;100.00;50454.25;4992067;28;51157;-65
2022/02/10 23:04:07;;;;;;;;;6.25;6.25;;;;;-147.17;100.00;50430.63;4992741;28;51204;-61
2022/02/10 23:06:33;;;;;;;;;8.00;8.00;;;;;-147.17;100.00;50432.59;4992638;28;51063;-61
2022/02/10 23:09:23;;;;;;;;;8.00;8.00;;;;;-147.17;100.00;50440.47;4992287;28;51835;-61
2022/02/10 23:11:44;;;;;;;;;10.75;8.50;;;;;-147.17;100.00;50426.69;4992770;28;51143;-61
2022/02/10 23:14:09;;;;;;;;;4.00;1.75;;;;;-147.17;100.00;50422.75;4989796;28;51382;-61
2022/02/10 23:16:37;;;;;;;;;9.75;8.75;;;;;-147.17;100.00;50407.00;4963357;28;51245;-61
2022/02/10 23:19:02;;;;;;;;;7.75;7.00;;;;;-147.17;100.00;50450.31;4980991;28;52661;-61
2022/02/10 23:21:28;;;;;;;;;12.00;10.25;;;;;-147.17;100.00;50430.63;4988452;28;51164;-61
2022/02/10 23:23:53;;;;;;;;;8.00;7.00;;;;;-147.17;100.00;50422.75;4988943;28;50936;-62
2022/02/10 23:26:20;;;;;;;;;10.75;10.50;;;;;-147.17;100.00;50426.69;4990667;28;51270;-60
2022/02/10 23:28:50;;;;;;;;;9.00;8.75;;;;;-147.17;100.00;50450.31;4984451;28;52726;-60
2022/02/10 23:31:17;;;;;;;;;8.75;8.75;;;;;-147.17;100.00;50430.63;4984729;28;51136;-60
2022/02/10 23:33:47;;;;;;;;;6.75;5.00;;;;;-147.17;100.00;50442.44;4987382;28;51205;-60
2022/02/10 23:39:23;;;;;;;;;8.75;8.75;;;;;-147.17;100.00;50426.69;4991671;28;51595;-59
2022/02/10 23:44:34;;;;;;;;;7.00;7.00;;;;;-147.17;100.00;50418.81;4985823;28;51158;-61
2022/02/10 23:46:59;;;;;;;;;10.75;10.00;;;;;-147.17;100.00;50458.19;4989731;28;51331;-61
2022/02/10 23:49:26;;;;;;;;;7.50;7.25;;;;;-147.17;100.00;50426.69;4985531;28;51172;-61
2022/02/10 23:51:59;;;;;;;;;11.50;11.50;;;;;-147.17;100.00;50430.63;4990377;28;51083;-61
2022/02/10 23:54:26;;;;;;;;;12.50;11.50;;;;;-147.17;100.00;50436.53;4986834;28;52828;-62
2022/02/10 23:56:59;;;;;;;;;10.00;10.00;;;;;-147.17;100.00;50444.41;4991520;28;51344;-62
2022/02/10 23:59:40;;;;;;;;;15.00;11.75;;;;;-147.17;100.00;50399.13;4980756;28;51926;-61
